createdAt,value
2018-07-08T00:01:01.055Z,40.50
2018-07-08T00:03:29.191Z,40.40
2018-07-08T00:05:57.336Z,40.50
2018-07-08T00:08:25.464Z,40.40
2018-07-08T00:10:55.560Z,40.40
2018-07-08T00:13:23.730Z,40.50
2018-07-08T00:15:51.823Z,40.60
2018-07-08T00:18:21.052Z,40.70
2018-07-08T00:20:50.403Z,40.70
2018-07-08T00:23:18.679Z,40.60
2018-07-08T00:25:46.799Z,40.70
2018-07-08T00:28:14.907Z,40.80
2018-07-08T00:30:43.065Z,40.80
2018-07-08T00:33:11.303Z,40.90
2018-07-08T00:35:39.622Z,40.90
2018-07-08T00:38:07.709Z,41.00
2018-07-08T00:40:35.803Z,40.90
2018-07-08T00:43:04.148Z,40.90
2018-07-08T00:45:32.299Z,40.90
2018-07-08T00:48:00.398Z,41.20
2018-07-08T00:50:28.495Z,41.10
2018-07-08T00:52:56.615Z,41.00
2018-07-08T00:55:24.703Z,41.00
2018-07-08T00:57:52.803Z,41.30
2018-07-08T01:00:33.748Z,41.10
2018-07-08T01:03:03.235Z,41.10
2018-07-08T01:05:31.535Z,41.10
2018-07-08T01:08:00.155Z,41.20
2018-07-08T01:10:28.503Z,41.20
2018-07-08T01:15:25.256Z,41.30
2018-07-08T01:20:21.399Z,41.30
2018-07-08T01:25:21.944Z,42.00
2018-07-08T01:27:50.056Z,41.20
2018-07-08T01:30:18.177Z,41.20
2018-07-08T01:32:46.302Z,41.30
2018-07-08T01:35:14.420Z,41.10
2018-07-08T01:37:42.515Z,41.10
2018-07-08T01:40:10.667Z,41.10
2018-07-08T01:42:38.777Z,41.40
2018-07-08T01:45:06.906Z,41.40
2018-07-08T01:47:35.000Z,41.70
2018-07-08T01:50:03.140Z,42.00
2018-07-08T01:52:31.179Z,42.00
2018-07-08T01:54:59.299Z,42.20
2018-07-08T01:57:27.388Z,42.10
2018-07-08T01:59:55.530Z,42.20
2018-07-08T02:02:23.635Z,42.10
2018-07-08T02:04:52.323Z,42.30
2018-07-08T02:07:20.423Z,42.30
2018-07-08T02:09:49.041Z,42.40
2018-07-08T02:12:17.744Z,42.30
2018-07-08T02:14:46.389Z,42.40
2018-07-08T02:17:14.512Z,42.40
2018-07-08T02:19:42.808Z,42.40
2018-07-08T02:22:10.946Z,42.40
2018-07-08T02:24:39.448Z,42.50
2018-07-08T02:27:07.623Z,42.50
2018-07-08T02:29:37.026Z,42.40
2018-07-08T02:34:33.153Z,42.20
2018-07-08T02:37:01.621Z,42.30
2018-07-08T02:39:29.704Z,42.30
2018-07-08T02:41:57.836Z,42.30
2018-07-08T02:44:25.992Z,42.30
2018-07-08T02:49:22.653Z,42.10
2018-07-08T02:51:50.803Z,42.20
2018-07-08T02:54:19.226Z,42.10
2018-07-08T02:56:47.312Z,41.90
2018-07-08T02:59:15.441Z,41.70
2018-07-08T03:01:43.579Z,41.60
2018-07-08T03:04:11.679Z,41.60
2018-07-08T03:06:39.788Z,42.00
2018-07-08T03:09:08.797Z,41.40
2018-07-08T03:11:36.896Z,41.40
2018-07-08T03:14:05.168Z,41.40
2018-07-08T03:16:33.310Z,41.40
2018-07-08T03:19:01.520Z,41.50
2018-07-08T03:21:29.655Z,41.40
2018-07-08T03:23:57.861Z,41.40
2018-07-08T03:26:25.995Z,42.00
2018-07-08T03:28:54.459Z,42.00
2018-07-08T03:31:22.611Z,41.40
2018-07-08T03:33:50.732Z,41.40
2018-07-08T03:36:18.844Z,41.50
2018-07-08T03:38:46.998Z,41.50
2018-07-08T03:41:15.097Z,41.50
2018-07-08T03:43:43.220Z,41.50
2018-07-08T03:46:17.783Z,41.50
2018-07-08T03:48:45.886Z,41.60
2018-07-08T03:51:13.999Z,41.60
2018-07-08T03:53:42.101Z,41.50
2018-07-08T03:56:10.221Z,41.40
2018-07-08T03:58:38.360Z,41.50
2018-07-08T04:01:06.485Z,41.40
2018-07-08T04:03:34.599Z,41.50
2018-07-08T04:06:02.717Z,41.50
2018-07-08T04:08:30.815Z,41.50
2018-07-08T04:10:58.924Z,41.60
2018-07-08T04:13:27.016Z,41.50
2018-07-08T04:15:55.214Z,41.40
2018-07-08T04:18:23.323Z,41.60
2018-07-08T04:20:51.404Z,41.50
2018-07-08T04:23:19.511Z,41.50
2018-07-08T04:25:47.608Z,41.40
2018-07-08T04:28:15.708Z,41.50
2018-07-08T04:30:43.824Z,41.60
2018-07-08T04:33:11.924Z,41.50
2018-07-08T04:35:40.029Z,41.60
2018-07-08T04:38:08.154Z,41.60
2018-07-08T04:40:36.244Z,41.60
2018-07-08T04:43:04.472Z,41.60
2018-07-08T04:45:32.599Z,41.70
2018-07-08T04:48:00.711Z,41.70
2018-07-08T04:50:28.801Z,41.70
2018-07-08T04:52:56.915Z,41.60
2018-07-08T04:55:25.032Z,41.70
2018-07-08T04:57:53.133Z,41.80
2018-07-08T05:00:21.229Z,41.80
2018-07-08T05:02:49.352Z,41.80
2018-07-08T05:05:18.252Z,41.80
2018-07-08T05:07:46.363Z,41.70
2018-07-08T05:10:14.456Z,41.80
2018-07-08T05:12:42.588Z,41.80
2018-07-08T05:15:10.719Z,41.80
2018-07-08T05:17:38.845Z,41.90
2018-07-08T05:20:06.947Z,41.90
2018-07-08T05:22:35.079Z,41.90
2018-07-08T05:25:03.180Z,42.00
2018-07-08T05:27:31.295Z,41.90
2018-07-08T05:29:59.403Z,41.80
2018-07-08T05:32:27.536Z,41.80
2018-07-08T05:34:55.652Z,41.80
2018-07-08T05:37:23.785Z,42.10
2018-07-08T05:39:51.876Z,42.10
2018-07-08T05:42:20.005Z,42.00
2018-07-08T05:44:48.119Z,41.90
2018-07-08T05:47:16.218Z,42.00
2018-07-08T05:49:44.329Z,42.60
2018-07-08T05:52:12.443Z,42.10
2018-07-08T05:54:40.584Z,42.20
2018-07-08T05:57:08.696Z,42.20
2018-07-08T05:59:36.822Z,42.00
2018-07-08T06:02:04.927Z,42.00
2018-07-08T06:04:33.040Z,42.00
2018-07-08T06:07:01.143Z,41.80
2018-07-08T06:09:29.227Z,41.90
2018-07-08T06:11:57.304Z,41.90
2018-07-08T06:14:25.419Z,41.90
2018-07-08T06:16:54.522Z,41.80
2018-07-08T06:19:22.591Z,42.10
2018-07-08T06:21:50.695Z,42.00
2018-07-08T06:24:18.796Z,42.40
2018-07-08T06:26:46.889Z,41.70
2018-07-08T06:29:14.977Z,41.90
2018-07-08T06:31:43.055Z,41.80
2018-07-08T06:34:11.152Z,41.90
2018-07-08T06:36:39.271Z,41.80
2018-07-08T06:39:07.486Z,41.90
2018-07-08T06:41:35.631Z,42.00
2018-07-08T06:44:03.748Z,41.90
2018-07-08T06:46:31.863Z,41.90
2018-07-08T06:49:00.030Z,42.00
2018-07-08T06:51:28.177Z,41.90
2018-07-08T06:53:56.304Z,41.80
2018-07-08T06:56:24.424Z,41.70
2018-07-08T06:58:52.715Z,41.70
2018-07-08T07:01:20.799Z,41.80
2018-07-08T07:03:48.952Z,42.30
2018-07-08T07:06:17.039Z,41.80
2018-07-08T07:08:45.140Z,41.80
2018-07-08T07:11:13.235Z,41.80
2018-07-08T07:13:41.360Z,41.90
2018-07-08T07:16:09.496Z,41.90
2018-07-08T07:18:37.591Z,41.80
2018-07-08T07:21:05.992Z,41.80
2018-07-08T07:23:34.127Z,41.80
2018-07-08T07:26:02.234Z,41.90
2018-07-08T07:28:30.465Z,42.00
2018-07-08T07:30:58.556Z,41.90
2018-07-08T07:33:26.661Z,41.90
2018-07-08T07:35:54.791Z,42.50
2018-07-08T07:38:22.905Z,41.60
2018-07-08T07:40:50.994Z,41.50
2018-07-08T07:43:19.187Z,41.30
2018-07-08T07:45:47.300Z,41.10
2018-07-08T07:48:15.392Z,41.00
2018-07-08T07:50:43.523Z,41.00
2018-07-08T07:53:11.624Z,40.90
2018-07-08T07:55:39.771Z,40.40
2018-07-08T07:58:07.863Z,40.20
2018-07-08T08:00:35.956Z,40.10
2018-07-08T08:03:04.078Z,39.90
2018-07-08T08:05:32.188Z,39.80
2018-07-08T08:08:00.315Z,39.60
2018-07-08T08:10:28.411Z,39.40
2018-07-08T08:12:56.490Z,39.40
2018-07-08T08:15:24.610Z,39.30
2018-07-08T08:17:52.724Z,39.20
2018-07-08T08:20:20.835Z,39.00
2018-07-08T08:22:48.970Z,39.00
2018-07-08T08:25:17.072Z,38.80
2018-07-08T08:27:45.195Z,38.70
2018-07-08T08:30:13.304Z,38.60
2018-07-08T08:32:41.419Z,38.50
2018-07-08T08:40:10.261Z,38.00
2018-07-08T08:42:38.494Z,37.80
2018-07-08T08:45:07.908Z,37.70
2018-07-08T08:47:36.126Z,37.50
2018-07-08T08:50:04.723Z,37.40
2018-07-08T08:52:32.907Z,37.20
2018-07-08T08:57:29.900Z,37.20
2018-07-08T08:59:58.003Z,36.90
2018-07-08T09:02:26.107Z,36.80
2018-07-08T09:04:54.202Z,36.70
2018-07-08T09:07:22.737Z,36.50
2018-07-08T09:09:50.858Z,36.40
2018-07-08T09:12:18.983Z,36.30
2018-07-08T09:14:47.133Z,36.10
2018-07-08T09:17:15.261Z,35.90
2018-07-08T09:19:43.379Z,35.90
2018-07-08T09:22:11.762Z,35.80
2018-07-08T09:24:39.874Z,35.60
2018-07-08T09:27:08.099Z,35.50
2018-07-08T09:32:04.152Z,35.40
2018-07-08T09:34:32.288Z,35.30
2018-07-08T09:37:00.395Z,35.00
2018-07-08T09:39:28.510Z,34.90
2018-07-08T09:41:56.643Z,34.80
2018-07-08T09:44:24.759Z,34.70
2018-07-08T09:46:52.863Z,34.70
2018-07-08T09:49:20.952Z,34.50
2018-07-08T09:51:49.116Z,34.40
2018-07-08T09:54:17.216Z,34.30
2018-07-08T09:59:13.421Z,34.10
2018-07-08T10:01:42.715Z,34.10
2018-07-08T10:04:19.644Z,33.90
2018-07-08T10:06:48.482Z,33.80
2018-07-08T10:09:17.776Z,33.70
2018-07-08T10:11:45.917Z,33.70
2018-07-08T10:14:15.320Z,33.60
2018-07-08T10:16:43.559Z,33.50
2018-07-08T10:19:12.678Z,33.40
2018-07-08T10:21:40.795Z,33.20
2018-07-08T10:24:09.111Z,33.10
2018-07-08T10:26:37.386Z,33.00
2018-07-08T10:29:05.974Z,32.90
2018-07-08T10:31:43.935Z,33.60
2018-07-08T10:34:12.036Z,32.90
2018-07-08T10:39:10.165Z,32.40
2018-07-08T10:41:38.319Z,32.60
2018-07-08T10:49:02.204Z,32.70
2018-07-08T10:51:30.301Z,32.60
2018-07-08T10:53:58.389Z,32.50
2018-07-08T10:56:26.517Z,32.40
2018-07-08T10:58:54.604Z,32.30
2018-07-08T11:01:22.711Z,32.30
2018-07-08T11:03:50.808Z,32.80
2018-07-08T11:06:18.912Z,32.10
2018-07-08T11:08:47.011Z,32.00
2018-07-08T11:11:15.132Z,32.00
2018-07-08T11:13:43.236Z,31.90
2018-07-08T11:16:11.331Z,31.80
2018-07-08T11:21:07.515Z,31.80
2018-07-08T11:23:35.615Z,31.80
2018-07-08T11:26:03.717Z,31.90
2018-07-08T11:33:27.708Z,31.90
2018-07-08T11:35:55.823Z,31.90
2018-07-08T11:38:23.937Z,31.80
2018-07-08T11:40:52.036Z,31.80
2018-07-08T11:43:20.153Z,31.80
2018-07-08T11:45:48.235Z,32.00
2018-07-08T11:48:16.352Z,32.00
2018-07-08T11:50:44.616Z,31.90
2018-07-08T11:53:12.715Z,31.80
2018-07-08T11:58:08.709Z,31.20
2018-07-08T12:00:36.802Z,30.70
2018-07-08T12:03:10.507Z,30.80
2018-07-08T12:05:38.922Z,30.40
2018-07-08T12:08:07.036Z,30.40
2018-07-08T12:10:35.126Z,30.20
2018-07-08T12:13:03.219Z,30.10
2018-07-08T12:15:31.344Z,30.30
2018-07-08T12:17:59.449Z,30.00
2018-07-08T12:20:27.536Z,30.00
2018-07-08T12:25:24.140Z,30.00
2018-07-08T12:27:52.264Z,29.70
2018-07-08T12:30:20.381Z,29.70
2018-07-08T12:32:48.483Z,29.80
2018-07-08T12:35:16.584Z,29.20
2018-07-08T12:37:44.694Z,29.20
2018-07-08T12:40:12.794Z,29.10
2018-07-08T12:42:40.876Z,29.20
2018-07-08T12:45:09.000Z,29.00
2018-07-08T12:47:37.096Z,28.90
2018-07-08T12:50:05.275Z,29.20
2018-07-08T12:52:33.376Z,29.20
2018-07-08T12:55:01.486Z,29.10
2018-07-08T12:57:29.580Z,29.20
2018-07-08T12:59:57.704Z,29.30
2018-07-08T13:02:25.799Z,29.30
2018-07-08T13:07:21.773Z,29.60
2018-07-08T13:09:49.873Z,29.60
2018-07-08T13:12:17.943Z,29.70
2018-07-08T13:14:46.048Z,29.80
2018-07-08T13:19:42.036Z,30.00
2018-07-08T13:22:10.247Z,30.20
2018-07-08T13:24:38.343Z,30.20
2018-07-08T13:27:06.491Z,30.50
2018-07-08T13:29:34.616Z,30.70
2018-07-08T13:32:02.742Z,30.60
2018-07-08T13:34:30.836Z,30.70
2018-07-08T13:36:58.956Z,30.80
2018-07-08T13:39:27.063Z,30.80
2018-07-08T13:41:55.167Z,30.70
2018-07-08T13:44:23.280Z,30.70
2018-07-08T13:46:51.399Z,30.80
2018-07-08T13:51:47.370Z,30.90
2018-07-08T13:54:15.491Z,31.00
2018-07-08T13:56:43.608Z,31.10
2018-07-08T13:59:11.708Z,31.90
2018-07-08T14:01:39.799Z,31.50
2018-07-08T14:04:07.892Z,31.90
2018-07-08T14:06:35.978Z,31.50
2018-07-08T14:11:32.090Z,31.80
2018-07-08T14:14:00.192Z,31.80
2018-07-08T14:18:56.167Z,31.80
2018-07-08T14:21:24.276Z,31.90
2018-07-08T14:23:52.795Z,32.00
2018-07-08T14:26:20.891Z,32.00
2018-07-08T14:28:49.003Z,32.40
2018-07-08T14:31:17.205Z,32.60
2018-07-08T14:33:45.244Z,32.60
2018-07-08T14:36:13.362Z,33.00
2018-07-08T14:38:41.469Z,33.00
2018-07-08T14:41:09.572Z,33.00
2018-07-08T14:43:37.927Z,33.00
2018-07-08T14:46:06.110Z,33.10
2018-07-08T14:48:34.182Z,33.10
2018-07-08T14:51:02.304Z,33.30
2018-07-08T14:53:30.391Z,33.40
2018-07-08T14:55:58.515Z,33.50
2018-07-08T14:58:26.690Z,33.60
2018-07-08T15:00:54.945Z,33.70
2018-07-08T15:03:23.040Z,33.70
2018-07-08T15:05:51.187Z,33.90
2018-07-08T15:08:19.283Z,34.00
2018-07-08T15:10:47.433Z,34.00
2018-07-08T15:13:15.583Z,34.10
2018-07-08T15:15:43.728Z,34.10
2018-07-08T15:18:11.780Z,34.30
2018-07-08T15:20:39.882Z,34.30
2018-07-08T15:23:07.985Z,34.40
2018-07-08T15:25:36.219Z,34.50
2018-07-08T15:30:32.257Z,34.80
2018-07-08T15:33:01.141Z,34.80
2018-07-08T15:35:29.244Z,34.90
2018-07-08T15:37:57.438Z,35.00
2018-07-08T15:40:25.494Z,35.10
2018-07-08T15:42:53.604Z,35.10
2018-07-08T15:45:21.724Z,35.40
2018-07-08T15:47:49.812Z,35.20
2018-07-08T15:50:17.908Z,35.10
2018-07-08T15:52:45.987Z,35.00
2018-07-08T15:55:14.092Z,35.00
2018-07-08T15:57:42.183Z,34.90
2018-07-08T16:02:38.204Z,35.20
2018-07-08T16:05:06.355Z,35.20
2018-07-08T16:07:34.460Z,35.30
2018-07-08T16:10:02.583Z,35.40
2018-07-08T16:12:30.696Z,35.50
2018-07-08T16:14:58.790Z,35.50
2018-07-08T16:17:26.891Z,35.40
2018-07-08T16:19:54.980Z,35.50
2018-07-08T16:22:23.358Z,35.50
2018-07-08T16:24:51.538Z,35.60
2018-07-08T16:27:19.540Z,35.50
2018-07-08T16:29:47.716Z,35.60
2018-07-08T16:32:15.835Z,36.00
2018-07-08T16:34:43.924Z,35.60
2018-07-08T16:37:12.036Z,35.70
2018-07-08T16:39:40.607Z,35.70
2018-07-08T16:42:08.704Z,35.90
2018-07-08T16:44:37.284Z,36.00
2018-07-08T16:47:05.411Z,36.00
2018-07-08T16:49:33.511Z,36.00
2018-07-08T16:52:01.618Z,36.00
2018-07-08T16:56:57.579Z,36.20
2018-07-08T16:59:25.663Z,36.20
2018-07-08T17:01:53.816Z,36.30
2018-07-08T17:04:21.944Z,36.30
2018-07-08T17:06:50.037Z,36.40
2018-07-08T17:09:18.123Z,36.40
2018-07-08T17:11:46.219Z,36.40
2018-07-08T17:14:14.307Z,36.50
2018-07-08T17:16:42.417Z,36.40
2018-07-08T17:19:10.516Z,36.50
2018-07-08T17:21:38.631Z,36.60
2018-07-08T17:24:06.744Z,36.60
2018-07-08T17:31:30.649Z,36.90
2018-07-08T17:33:58.755Z,37.00
2018-07-08T17:36:26.860Z,36.90
2018-07-08T17:38:54.948Z,37.00
2018-07-08T17:41:23.048Z,37.10
2018-07-08T17:46:19.040Z,37.30
2018-07-08T17:48:47.149Z,37.30
2018-07-08T17:51:15.264Z,37.40
2018-07-08T17:53:43.372Z,37.40
2018-07-08T17:56:11.520Z,37.40
2018-07-08T17:58:39.855Z,37.40
2018-07-08T18:01:07.976Z,37.50
2018-07-08T18:03:36.091Z,37.60
2018-07-08T18:06:04.203Z,37.70
2018-07-08T18:08:33.270Z,37.80
2018-07-08T18:11:01.394Z,37.70
2018-07-08T18:13:29.536Z,37.80
2018-07-08T18:15:57.659Z,38.00
2018-07-08T18:18:25.763Z,38.00
2018-07-08T18:23:21.760Z,38.20
2018-07-08T18:25:49.874Z,34.20
2018-07-08T18:28:17.993Z,34.70
2018-07-08T18:30:46.084Z,35.80
2018-07-08T18:33:14.207Z,36.60
2018-07-08T18:38:10.194Z,37.80
2018-07-08T18:40:38.310Z,37.50
2018-07-08T18:43:06.567Z,38.00
2018-07-08T18:45:34.697Z,38.30
2018-07-08T18:48:02.786Z,38.90
2018-07-08T18:50:30.941Z,39.50
2018-07-08T18:52:59.034Z,39.70
2018-07-08T18:55:27.162Z,39.60
2018-07-08T18:57:55.271Z,40.20
2018-07-08T19:00:23.377Z,40.40
2018-07-08T19:02:51.473Z,40.80
2018-07-08T19:05:19.576Z,41.10
2018-07-08T19:07:47.743Z,41.30
2018-07-08T19:10:15.887Z,41.40
2018-07-08T19:15:11.871Z,41.90
2018-07-08T19:17:40.069Z,42.10
2018-07-08T19:20:08.615Z,42.60
2018-07-08T19:22:36.736Z,42.80
2018-07-08T19:25:04.864Z,43.00
2018-07-08T19:27:32.967Z,43.30
2018-07-08T19:30:01.274Z,43.40
2018-07-08T19:32:29.399Z,43.60
2018-07-08T19:34:58.706Z,43.80
2018-07-08T19:37:27.020Z,44.20
2018-07-08T19:39:55.345Z,44.30
2018-07-08T19:42:23.464Z,44.50
2018-07-08T19:44:51.548Z,44.80
2018-07-08T19:47:19.848Z,45.20
2018-07-08T19:49:48.772Z,45.20
2018-07-08T19:52:16.875Z,45.40
2018-07-08T19:54:45.012Z,45.70
2018-07-08T19:57:14.425Z,45.80
2018-07-08T19:59:42.856Z,46.00
2018-07-08T20:02:10.955Z,46.20
2018-07-08T20:04:39.063Z,47.10
2018-07-08T20:07:07.168Z,46.90
2018-07-08T20:09:35.622Z,46.90
2018-07-08T20:12:03.720Z,47.30
2018-07-08T20:14:31.877Z,47.40
2018-07-08T20:17:00.400Z,47.70
2018-07-08T20:19:28.548Z,47.90
2018-07-08T20:21:56.814Z,46.90
2018-07-08T20:24:25.099Z,45.50
2018-07-08T20:26:53.187Z,44.70
2018-07-08T20:29:21.346Z,43.80
2018-07-08T20:31:49.468Z,43.20
2018-07-08T20:34:17.636Z,42.90
2018-07-08T20:36:45.735Z,42.50
2018-07-08T20:39:13.840Z,42.40
2018-07-08T20:41:41.952Z,42.30
2018-07-08T20:44:10.409Z,42.10
2018-07-08T20:46:38.511Z,42.00
2018-07-08T20:49:06.624Z,41.80
2018-07-08T20:51:34.988Z,41.40
2018-07-08T20:54:03.085Z,41.60
2018-07-08T20:56:31.381Z,41.80
2018-07-08T21:01:27.856Z,41.70
2018-07-08T21:03:56.549Z,41.60
2018-07-08T21:06:24.671Z,41.40
2018-07-08T21:08:52.800Z,41.80
2018-07-08T21:11:20.892Z,41.20
2018-07-08T21:13:49.352Z,41.00
2018-07-08T21:16:17.463Z,41.20
2018-07-08T21:18:45.620Z,40.90
2018-07-08T21:21:13.703Z,41.10
2018-07-08T21:23:41.862Z,40.90
2018-07-08T21:26:10.284Z,41.10
2018-07-08T21:28:38.640Z,41.00
2018-07-08T21:31:07.851Z,41.00
2018-07-08T21:33:36.127Z,41.00
2018-07-08T21:36:04.291Z,41.00
2018-07-08T21:38:32.400Z,40.70
2018-07-08T21:41:00.516Z,40.70
2018-07-08T21:43:28.628Z,40.80
2018-07-08T21:48:24.655Z,40.60
2018-07-08T21:50:52.782Z,40.60
2018-07-08T21:53:20.919Z,40.60
2018-07-08T21:55:49.036Z,40.60
2018-07-08T21:58:17.371Z,40.40
2018-07-08T22:01:20.605Z,40.90
2018-07-08T22:03:49.239Z,41.10
2018-07-08T22:06:17.921Z,40.60
2018-07-08T22:08:46.207Z,41.00
2018-07-08T22:11:14.372Z,41.00
2018-07-08T22:13:42.961Z,40.80
2018-07-08T22:16:11.083Z,40.70
2018-07-08T22:18:39.304Z,40.80
2018-07-08T22:21:08.168Z,40.80
2018-07-08T22:23:36.485Z,40.90
2018-07-08T22:26:04.656Z,40.50
2018-07-08T22:28:33.160Z,40.40
2018-07-08T22:31:01.538Z,40.80
2018-07-08T22:33:29.668Z,40.80
2018-07-08T22:35:57.783Z,41.20
2018-07-08T22:38:25.905Z,40.80
2018-07-08T22:40:54.019Z,40.90
2018-07-08T22:43:22.142Z,41.00
2018-07-08T22:45:50.298Z,40.80
2018-07-08T22:48:18.419Z,40.90
2018-07-08T22:50:46.813Z,40.80
2018-07-08T22:53:14.970Z,40.80
2018-07-08T22:55:43.107Z,40.90
2018-07-08T22:58:11.238Z,41.00
2018-07-08T23:00:50.770Z,41.10
2018-07-08T23:08:50.331Z,41.40
2018-07-08T23:11:18.916Z,41.50
2018-07-08T23:13:47.878Z,41.40
2018-07-08T23:16:16.012Z,41.20
2018-07-08T23:23:40.163Z,41.30
2018-07-08T23:26:08.295Z,41.30
2018-07-08T23:28:37.064Z,41.90
2018-07-08T23:31:05.729Z,41.20
2018-07-08T23:36:02.699Z,41.20
2018-07-08T23:38:31.260Z,41.40
2018-07-08T23:40:59.968Z,41.50
2018-07-08T23:43:28.044Z,41.40
2018-07-08T23:45:56.159Z,41.70
2018-07-08T23:48:24.259Z,41.60
2018-07-08T23:50:52.372Z,41.70
2018-07-08T23:55:48.344Z,41.60
2018-07-08T23:58:16.442Z,41.60
